Terminal Aerodrome Forecast
Issued by NWS Wilmington, OH

Home | Current Version | Previous Version | Text Only | Print | Product List | Glossary On
Versions: 1 2 3 4 5 6 7 8 9 10 11 12 13 14 15 16 17 18 19 20 21 22 23 24 25 26 27
372
FTUS41 KILN 101501 AAB
TAFCVG
TAF AMD
KCVG 101501Z 1015/1118 27012G18KT 6SM -SHSN BKN025 OVC035
     FM101800 28014G20KT P6SM -SHSN OVC035
     FM110000 28008KT P6SM BKN035
     FM110900 29006KT P6SM SCT035=

USA.gov is the U.S. government's official web portal to all federal, state and local government web resources and services.